createdAt,value
2018-12-19T00:01:46.062Z,34.18
2018-12-19T00:04:16.081Z,32.48
2018-12-19T00:06:46.042Z,30.57
2018-12-19T00:09:13.950Z,32.78
2018-12-19T00:11:41.922Z,30.20
2018-12-19T00:14:09.838Z,31.02
2018-12-19T00:16:37.765Z,32.58
2018-12-19T00:19:05.725Z,31.23
2018-12-19T00:21:33.657Z,30.40
2018-12-19T00:24:01.552Z,31.90
2018-12-19T00:26:29.534Z,29.20
2018-12-19T00:28:59.513Z,30.43
2018-12-19T00:31:29.518Z,32.90
2018-12-19T00:33:59.473Z,30.48
2018-12-19T00:36:27.388Z,29.42
2018-12-19T00:38:56.484Z,30.70
2018-12-19T00:41:24.397Z,28.87
2018-12-19T00:43:52.326Z,30.32
2018-12-19T00:46:20.303Z,30.70
2018-12-19T00:48:48.279Z,33.60
2018-12-19T00:51:16.213Z,30.72
2018-12-19T00:53:44.108Z,35.35
2018-12-19T00:56:12.017Z,31.82
2018-12-19T00:58:39.962Z,33.28
2018-12-19T01:01:07.866Z,33.90
2018-12-19T01:03:35.810Z,32.75
2018-12-19T01:06:03.814Z,33.10
2018-12-19T01:08:31.767Z,30.48
2018-12-19T01:10:59.721Z,32.10
2018-12-19T01:13:27.671Z,30.70
2018-12-19T01:15:55.599Z,29.10
2018-12-19T01:18:23.518Z,31.87
2018-12-19T01:20:51.421Z,29.42
2018-12-19T01:23:19.322Z,32.28
2018-12-19T01:25:47.274Z,31.35
2018-12-19T01:28:15.192Z,30.30
2018-12-19T01:30:43.238Z,31.65
2018-12-19T01:33:11.125Z,32.58
2018-12-19T01:35:40.098Z,30.05
2018-12-19T01:38:08.013Z,30.45
2018-12-19T01:40:35.973Z,32.98
2018-12-19T01:43:03.947Z,30.45
2018-12-19T01:45:31.826Z,31.20
2018-12-19T01:48:00.777Z,31.90
2018-12-19T01:50:28.694Z,31.80
2018-12-19T01:52:56.612Z,31.33
2018-12-19T01:55:24.542Z,31.15
2018-12-19T01:57:59.208Z,32.78
2018-12-19T02:00:31.951Z,29.92
2018-12-19T02:02:59.965Z,32.03
2018-12-19T02:05:27.917Z,31.10
2018-12-19T02:07:55.873Z,28.92
2018-12-19T02:10:23.837Z,30.43
2018-12-19T02:12:51.804Z,31.25
2018-12-19T02:15:19.724Z,31.65
2018-12-19T02:17:47.626Z,30.77
2018-12-19T02:20:15.551Z,29.82
2018-12-19T02:22:43.484Z,33.65
2018-12-19T02:25:11.428Z,32.88
2018-12-19T02:27:39.391Z,29.27
2018-12-19T02:30:07.368Z,31.05
2018-12-19T02:32:35.285Z,30.48
2018-12-19T02:35:03.385Z,28.30
2018-12-19T02:37:31.308Z,28.90
2018-12-19T02:39:59.271Z,29.10
2018-12-19T02:42:27.203Z,32.20
2018-12-19T02:44:55.188Z,31.15
2018-12-19T02:47:23.119Z,34.58
2018-12-19T02:49:51.038Z,33.98
2018-12-19T02:52:18.946Z,35.38
2018-12-19T02:54:48.021Z,34.65
2018-12-19T02:57:15.953Z,32.50
2018-12-19T02:59:43.868Z,33.67
2018-12-19T03:02:11.846Z,32.83
2018-12-19T03:04:39.758Z,34.85
2018-12-19T03:07:08.736Z,35.85
2018-12-19T03:09:42.803Z,34.92
2018-12-19T03:12:06.615Z,34.83
2018-12-19T03:14:34.535Z,35.48
2018-12-19T03:17:02.519Z,34.75
2018-12-19T03:19:30.471Z,35.55
2018-12-19T03:21:58.402Z,37.03
2018-12-19T03:24:26.400Z,35.63
2018-12-19T03:26:54.328Z,37.08
2018-12-19T03:29:22.222Z,35.50
2018-12-19T03:31:50.161Z,34.58
2018-12-19T03:34:18.112Z,37.25
2018-12-19T03:36:46.071Z,34.15
2018-12-19T03:39:20.877Z,37.90
2018-12-19T03:41:48.940Z,35.13
2018-12-19T03:44:16.879Z,36.85
2018-12-19T03:46:44.902Z,35.08
2018-12-19T03:49:12.867Z,37.08
2018-12-19T03:51:41.326Z,35.33
2018-12-19T03:54:09.279Z,34.98
2018-12-19T03:56:37.181Z,34.75
2018-12-19T03:59:05.095Z,32.38
2018-12-19T04:01:33.050Z,35.83
2018-12-19T04:04:00.944Z,31.05
2018-12-19T04:06:28.863Z,31.48
2018-12-19T04:08:56.806Z,28.98
2018-12-19T04:11:24.718Z,28.47
2018-12-19T04:13:52.686Z,29.02
2018-12-19T04:16:20.683Z,29.05
2018-12-19T04:18:48.640Z,33.90
2018-12-19T04:21:16.570Z,28.32
2018-12-19T04:23:44.498Z,29.45
2018-12-19T04:26:12.418Z,30.72
2018-12-19T04:28:40.362Z,28.20
2018-12-19T04:31:08.327Z,31.00
2018-12-19T04:33:37.393Z,30.17
2018-12-19T04:36:05.463Z,27.87
2018-12-19T04:38:33.554Z,27.77
2018-12-19T04:41:01.484Z,26.25
2018-12-19T04:43:29.467Z,26.93
2018-12-19T04:45:57.442Z,27.58
2018-12-19T04:48:25.362Z,26.48
2018-12-19T04:50:53.281Z,28.12
2018-12-19T04:53:21.182Z,28.95
2018-12-19T04:55:49.101Z,26.70
2018-12-19T04:58:17.072Z,26.37
2018-12-19T05:00:44.995Z,28.55
2018-12-19T05:03:20.946Z,27.80
2018-12-19T05:05:49.035Z,27.37
2018-12-19T05:08:16.993Z,27.52
2018-12-19T05:10:44.944Z,26.27
2018-12-19T05:13:12.897Z,28.30
2018-12-19T05:15:40.924Z,23.70
2018-12-19T05:18:08.854Z,25.88
2018-12-19T05:20:36.786Z,26.02
2018-12-19T05:23:04.751Z,24.82
2018-12-19T05:25:32.675Z,25.50
2018-12-19T05:28:00.649Z,26.60
2018-12-19T05:30:28.593Z,28.30
2018-12-19T05:33:03.482Z,26.23
2018-12-19T05:35:31.434Z,27.00
2018-12-19T05:37:59.375Z,24.82
2018-12-19T05:40:27.278Z,27.07
2018-12-19T05:42:55.226Z,29.40
2018-12-19T05:45:23.176Z,31.12
2018-12-19T05:47:51.236Z,33.20
2018-12-19T05:50:21.902Z,31.55
2018-12-19T05:52:49.854Z,28.92
2018-12-19T05:55:17.837Z,30.50
2018-12-19T05:57:45.786Z,29.65
2018-12-19T06:00:13.952Z,32.17
2018-12-19T06:02:41.916Z,30.80
2018-12-19T06:05:09.922Z,33.33
2018-12-19T06:07:37.845Z,33.88
2018-12-19T06:10:05.905Z,31.70
2018-12-19T06:12:33.874Z,32.93
2018-12-19T06:15:01.899Z,33.25
2018-12-19T06:17:29.882Z,35.38
2018-12-19T06:19:57.894Z,35.35
2018-12-19T06:22:25.841Z,34.40
2018-12-19T06:24:53.877Z,32.85
2018-12-19T06:27:21.815Z,34.70
2018-12-19T06:29:49.815Z,37.30
2018-12-19T06:32:17.825Z,33.90
2018-12-19T06:34:47.649Z,34.80
2018-12-19T06:37:15.653Z,34.08
2018-12-19T06:39:50.517Z,31.50
2018-12-19T06:42:18.496Z,32.23
2018-12-19T06:44:46.503Z,33.18
2018-12-19T06:47:14.495Z,34.03
2018-12-19T06:49:42.580Z,33.63
2018-12-19T06:52:10.533Z,31.82
2018-12-19T06:54:38.751Z,31.65
2018-12-19T06:57:06.710Z,33.35
2018-12-19T06:59:34.626Z,30.45
2018-12-19T07:02:02.588Z,30.70
2018-12-19T07:04:30.537Z,29.05
2018-12-19T07:06:58.481Z,30.20
2018-12-19T07:09:26.435Z,28.05
2018-12-19T07:11:54.365Z,33.40
2018-12-19T07:14:22.323Z,30.90
2018-12-19T07:16:50.269Z,30.80
2018-12-19T07:19:18.183Z,31.05
2018-12-19T07:21:46.092Z,31.02
2018-12-19T07:24:14.050Z,30.15
2018-12-19T07:26:42.139Z,32.53
2018-12-19T07:29:10.107Z,31.07
2018-12-19T07:31:38.061Z,33.33
2018-12-19T07:34:06.019Z,28.30
2018-12-19T07:36:33.981Z,30.17
2018-12-19T07:39:02.034Z,30.43
2018-12-19T07:41:31.281Z,29.23
2018-12-19T07:43:59.208Z,31.75
2018-12-19T07:46:27.151Z,33.23
2018-12-19T07:48:55.044Z,31.57
2018-12-19T07:51:23.097Z,34.38
2018-12-19T07:53:51.022Z,33.18
2018-12-19T07:56:19.178Z,33.33
2018-12-19T07:58:47.106Z,34.70
2018-12-19T08:01:17.389Z,33.18
2018-12-19T08:03:45.435Z,32.00
2018-12-19T08:06:13.401Z,33.40
2018-12-19T08:08:41.341Z,32.10
2018-12-19T08:11:09.289Z,35.17
2018-12-19T08:13:37.239Z,35.92
2018-12-19T08:16:05.206Z,33.75
2018-12-19T08:18:33.138Z,36.42
2018-12-19T08:21:01.118Z,35.40
2018-12-19T08:23:29.124Z,35.23
2018-12-19T08:25:57.031Z,36.30
2018-12-19T08:28:32.041Z,35.45
2018-12-19T08:31:00.007Z,35.98
2018-12-19T08:33:27.974Z,36.65
2018-12-19T08:35:55.950Z,36.75
2018-12-19T08:38:25.023Z,37.80
2018-12-19T08:40:58.588Z,37.15
2018-12-19T08:43:22.922Z,35.25
2018-12-19T08:45:51.235Z,34.58
2018-12-19T08:48:19.164Z,37.45
2018-12-19T08:50:47.078Z,36.15
2018-12-19T08:53:15.050Z,34.83
2018-12-19T08:55:43.013Z,34.92
2018-12-19T08:58:11.061Z,37.60
2018-12-19T09:00:39.087Z,36.00
2018-12-19T09:03:07.037Z,35.78
2018-12-19T09:05:35.027Z,35.95
2018-12-19T09:08:02.990Z,37.65
2018-12-19T09:10:30.995Z,35.63
2018-12-19T09:12:58.974Z,39.30
2018-12-19T09:15:32.627Z,40.05
2018-12-19T09:18:00.574Z,37.13
2018-12-19T09:20:28.506Z,38.25
2018-12-19T09:22:56.502Z,38.05
2018-12-19T09:25:24.490Z,39.33
2018-12-19T09:27:52.402Z,39.53
2018-12-19T09:30:20.381Z,37.17
2018-12-19T09:32:48.575Z,39.90
2018-12-19T09:35:16.634Z,40.48
2018-12-19T09:37:44.612Z,38.67
2018-12-19T09:40:12.540Z,38.45
2018-12-19T09:42:40.526Z,37.00
2018-12-19T09:45:08.461Z,39.55
2018-12-19T09:47:36.505Z,38.63
2018-12-19T09:50:04.502Z,38.45
2018-12-19T09:52:32.403Z,37.48
2018-12-19T09:55:00.349Z,39.80
2018-12-19T09:57:28.448Z,39.48
2018-12-19T09:59:56.435Z,39.45
2018-12-19T10:02:24.438Z,37.53
2018-12-19T10:04:52.445Z,34.78
2018-12-19T10:07:20.421Z,39.50
2018-12-19T10:09:48.461Z,40.15
2018-12-19T10:12:16.426Z,36.48
2018-12-19T10:14:44.484Z,34.50
2018-12-19T10:17:12.427Z,38.17
2018-12-19T10:19:40.401Z,38.63
2018-12-19T10:22:08.446Z,34.45
2018-12-19T10:24:41.986Z,35.70
2018-12-19T10:27:11.965Z,36.17
2018-12-19T10:29:39.982Z,34.15
2018-12-19T10:32:07.979Z,38.73
2018-12-19T10:34:38.040Z,34.48
2018-12-19T10:37:07.503Z,36.85
2018-12-19T10:39:35.960Z,32.50
2018-12-19T10:42:04.016Z,34.25
2018-12-19T10:44:31.963Z,35.03
2018-12-19T10:46:59.907Z,35.33
2018-12-19T10:49:27.861Z,31.37
2018-12-19T10:51:55.880Z,34.05
2018-12-19T10:54:23.887Z,32.67
2018-12-19T10:56:51.946Z,32.40
2018-12-19T10:59:19.964Z,31.05
2018-12-19T11:01:48.083Z,33.28
2018-12-19T11:04:17.269Z,32.33
2018-12-19T11:06:45.206Z,32.05
2018-12-19T11:09:13.171Z,31.87
2018-12-19T11:11:41.131Z,30.90
2018-12-19T11:14:10.147Z,31.70
2018-12-19T11:16:38.105Z,32.45
2018-12-19T11:19:06.037Z,30.23
2018-12-19T11:21:34.060Z,30.77
2018-12-19T11:24:02.399Z,32.98
2018-12-19T11:26:30.479Z,31.05
2018-12-19T11:28:58.487Z,32.20
2018-12-19T11:31:26.471Z,33.88
2018-12-19T11:33:54.450Z,34.60
2018-12-19T11:36:22.489Z,31.35
2018-12-19T11:38:50.483Z,30.57
2018-12-19T11:41:18.395Z,29.27
2018-12-19T11:43:46.521Z,30.37
2018-12-19T11:46:14.485Z,29.35
2018-12-19T11:48:42.488Z,30.75
2018-12-19T11:51:10.564Z,30.52
2018-12-19T11:53:38.524Z,28.95
2018-12-19T11:56:06.603Z,30.77
2018-12-19T11:58:34.615Z,31.57
2018-12-19T12:01:02.670Z,28.55
2018-12-19T12:03:31.778Z,29.92
2018-12-19T12:05:59.779Z,27.65
2018-12-19T12:08:27.707Z,29.70
2018-12-19T12:11:02.884Z,29.18
2018-12-19T12:13:30.800Z,29.82
2018-12-19T12:15:58.756Z,29.95
2018-12-19T12:18:26.741Z,26.62
2018-12-19T12:20:54.686Z,29.72
2018-12-19T12:23:22.644Z,29.40
2018-12-19T12:25:50.607Z,26.05
2018-12-19T12:28:18.590Z,25.08
2018-12-19T12:30:46.587Z,26.48
2018-12-19T12:33:14.579Z,26.00
2018-12-19T12:35:43.049Z,26.52
2018-12-19T12:38:10.992Z,25.80
2018-12-19T12:40:38.937Z,23.98
2018-12-19T12:43:06.858Z,25.70
2018-12-19T12:45:34.853Z,22.48
2018-12-19T12:48:02.913Z,20.12
2018-12-19T12:50:32.009Z,24.35
2018-12-19T12:52:59.989Z,23.87
2018-12-19T12:55:27.971Z,25.35
2018-12-19T12:57:55.996Z,23.47
2018-12-19T13:00:23.925Z,21.73
2018-12-19T13:02:51.977Z,22.05
2018-12-19T13:05:21.969Z,22.60
2018-12-19T13:07:49.958Z,22.67
2018-12-19T13:10:17.927Z,21.23
2018-12-19T13:12:45.892Z,23.83
2018-12-19T13:15:18.344Z,22.02
2018-12-19T13:17:46.300Z,21.70
2018-12-19T13:20:14.238Z,22.17
2018-12-19T13:22:42.260Z,22.82
2018-12-19T13:25:10.206Z,21.95
2018-12-19T13:27:38.135Z,22.87
2018-12-19T13:30:07.393Z,24.27
2018-12-19T13:32:35.413Z,22.55
2018-12-19T13:35:03.508Z,19.98
2018-12-19T13:37:31.480Z,22.80
2018-12-19T13:39:59.390Z,24.35
2018-12-19T13:42:27.338Z,21.85
2018-12-19T13:44:56.433Z,21.25
2018-12-19T13:47:24.335Z,21.95
2018-12-19T13:49:52.318Z,21.62
2018-12-19T13:52:20.232Z,20.95
2018-12-19T13:54:48.184Z,21.73
2018-12-19T13:57:16.136Z,21.52
2018-12-19T13:59:44.097Z,22.40
2018-12-19T14:02:12.068Z,22.42
2018-12-19T14:04:40.295Z,22.27
2018-12-19T14:07:08.464Z,21.73
2018-12-19T14:09:36.402Z,22.82
2018-12-19T14:12:04.350Z,20.70
2018-12-19T14:14:32.335Z,20.95
2018-12-19T14:17:00.344Z,19.60
2018-12-19T14:19:28.333Z,19.98
2018-12-19T14:21:56.275Z,20.52
2018-12-19T14:24:24.215Z,22.35
2018-12-19T14:26:52.149Z,21.57
2018-12-19T14:29:20.118Z,21.93
2018-12-19T14:31:48.079Z,20.97
2018-12-19T14:34:16.061Z,20.27
2018-12-19T14:36:44.106Z,22.58
2018-12-19T14:39:12.081Z,23.22
2018-12-19T14:41:40.057Z,22.70
2018-12-19T14:44:08.053Z,25.40
2018-12-19T14:46:36.004Z,25.92
2018-12-19T14:49:03.977Z,25.80
2018-12-19T14:51:31.943Z,27.50
2018-12-19T14:53:59.941Z,24.85
2018-12-19T14:56:27.926Z,25.15
2018-12-19T14:58:55.914Z,25.95
2018-12-19T15:01:23.869Z,26.00
2018-12-19T15:03:51.857Z,29.48
2018-12-19T15:06:20.309Z,27.58
2018-12-19T15:08:48.331Z,28.25
2018-12-19T15:11:16.344Z,27.90
2018-12-19T15:13:44.313Z,28.07
2018-12-19T15:16:12.380Z,27.42
2018-12-19T15:18:40.314Z,28.02
2018-12-19T15:21:08.410Z,28.75
2018-12-19T15:23:37.411Z,28.02
2018-12-19T15:26:05.493Z,28.23
2018-12-19T15:28:33.462Z,28.95
2018-12-19T15:31:02.570Z,26.95
2018-12-19T15:33:30.571Z,26.17
2018-12-19T15:35:58.730Z,26.85
2018-12-19T15:38:26.692Z,27.40
2018-12-19T15:40:54.650Z,26.75
2018-12-19T15:43:22.615Z,29.98
2018-12-19T15:45:50.547Z,28.10
2018-12-19T15:48:18.550Z,27.82
2018-12-19T15:50:46.568Z,30.00
2018-12-19T15:53:14.521Z,26.70
2018-12-19T15:55:42.498Z,30.43
2018-12-19T15:58:10.428Z,29.67
2018-12-19T16:00:38.393Z,27.73
2018-12-19T16:03:07.474Z,27.17
2018-12-19T16:05:35.473Z,26.75
2018-12-19T16:08:03.630Z,28.85
2018-12-19T16:10:31.617Z,28.30
2018-12-19T16:12:59.567Z,27.02
2018-12-19T16:15:27.530Z,27.73
2018-12-19T16:17:55.517Z,27.05
2018-12-19T16:20:23.439Z,29.07
2018-12-19T16:22:51.433Z,28.38
2018-12-19T16:25:19.370Z,28.50
2018-12-19T16:27:54.249Z,28.10
2018-12-19T16:30:22.309Z,26.80
2018-12-19T16:32:50.249Z,27.00
2018-12-19T16:35:18.204Z,28.62
2018-12-19T16:37:46.176Z,32.08
2018-12-19T16:40:14.161Z,29.92
2018-12-19T16:42:46.067Z,30.37
2018-12-19T16:45:12.190Z,29.18
2018-12-19T16:47:40.167Z,27.95
2018-12-19T16:50:08.122Z,27.62
2018-12-19T16:52:36.097Z,27.02
2018-12-19T16:55:04.074Z,26.97
2018-12-19T16:57:32.095Z,26.30
2018-12-19T17:00:00.104Z,30.30
2018-12-19T17:02:28.101Z,27.90
2018-12-19T17:04:56.048Z,26.68
2018-12-19T17:07:23.979Z,25.95
2018-12-19T17:09:51.986Z,28.83
2018-12-19T17:12:19.980Z,27.20
2018-12-19T17:14:48.034Z,28.12
2018-12-19T17:17:16.045Z,28.70
2018-12-19T17:19:43.958Z,29.15
2018-12-19T17:22:13.707Z,27.77
2018-12-19T17:24:41.581Z,29.32
2018-12-19T17:27:12.404Z,27.75
2018-12-19T17:29:40.294Z,24.10
2018-12-19T17:32:09.294Z,24.95
2018-12-19T17:34:38.292Z,27.07
2018-12-19T17:37:06.860Z,25.37
2018-12-19T17:39:34.718Z,26.35
2018-12-19T17:42:02.644Z,25.72
2018-12-19T17:44:30.480Z,25.92
2018-12-19T17:46:58.360Z,24.00
2018-12-19T17:49:26.284Z,23.38
2018-12-19T17:51:56.212Z,24.85
2018-12-19T17:54:24.178Z,24.67
2018-12-19T17:56:52.078Z,24.20
2018-12-19T17:59:19.981Z,24.00
2018-12-19T18:01:47.895Z,26.10
2018-12-19T18:04:15.814Z,23.47
2018-12-19T18:06:43.690Z,23.47
2018-12-19T18:09:12.227Z,25.88
2018-12-19T18:11:40.317Z,22.35
2018-12-19T18:14:08.291Z,24.52
2018-12-19T18:16:36.334Z,23.73
2018-12-19T18:19:04.772Z,24.52
2018-12-19T18:21:32.848Z,23.45
2018-12-19T18:24:00.815Z,22.95
2018-12-19T18:26:28.728Z,24.25
2018-12-19T18:28:56.651Z,22.67
2018-12-19T18:31:24.563Z,24.15
2018-12-19T18:33:53.481Z,21.50
2018-12-19T18:36:21.410Z,24.45
2018-12-19T18:38:49.915Z,23.42
2018-12-19T18:41:17.941Z,23.83
2018-12-19T18:43:45.907Z,25.75
2018-12-19T18:46:13.823Z,22.65
2018-12-19T18:48:41.721Z,21.73
2018-12-19T18:51:09.543Z,23.52
2018-12-19T18:53:37.424Z,24.35
2018-12-19T18:56:05.377Z,24.92
2018-12-19T18:58:33.242Z,22.80
2018-12-19T19:01:01.160Z,22.80
2018-12-19T19:03:29.194Z,24.57
2018-12-19T19:05:57.154Z,24.30
2018-12-19T19:08:25.048Z,23.70
2018-12-19T19:10:52.982Z,23.77
2018-12-19T19:13:20.872Z,24.15
2018-12-19T19:15:48.733Z,23.75
2018-12-19T19:18:16.613Z,25.10
2018-12-19T19:20:44.492Z,25.70
2018-12-19T19:23:12.444Z,25.75
2018-12-19T19:25:40.353Z,27.05
2018-12-19T19:28:08.255Z,24.30
2018-12-19T19:30:36.251Z,24.85
2018-12-19T19:33:04.263Z,24.27
2018-12-19T19:35:32.319Z,27.50
2018-12-19T19:38:00.272Z,25.55
2018-12-19T19:40:28.143Z,25.95
2018-12-19T19:42:56.108Z,26.20
2018-12-19T19:45:24.130Z,23.83
2018-12-19T19:47:52.408Z,26.40
2018-12-19T19:50:21.500Z,26.65
2018-12-19T19:52:50.648Z,27.98
2018-12-19T19:55:18.752Z,30.43
2018-12-19T19:57:46.761Z,26.62
2018-12-19T20:00:16.813Z,24.60
2018-12-19T20:02:44.725Z,26.52
2018-12-19T20:05:12.651Z,25.52
2018-12-19T20:07:40.539Z,27.42
2018-12-19T20:10:08.556Z,25.75
2018-12-19T20:12:36.486Z,26.12
2018-12-19T20:15:05.081Z,26.25
2018-12-19T20:17:33.659Z,27.87
2018-12-19T20:20:01.602Z,26.82
2018-12-19T20:22:29.502Z,28.42
2018-12-19T20:24:57.422Z,29.48
2018-12-19T20:27:25.257Z,27.22
2018-12-19T20:29:54.077Z,30.30
2018-12-19T20:32:21.977Z,27.80
2018-12-19T20:34:49.885Z,29.70
2018-12-19T20:37:17.773Z,28.07
2018-12-19T20:39:45.615Z,30.02
2018-12-19T20:42:13.470Z,28.05
2018-12-19T20:44:42.365Z,29.12
2018-12-19T20:47:10.225Z,28.00
2018-12-19T20:49:38.149Z,25.50
2018-12-19T20:52:06.090Z,27.10
2018-12-19T20:54:34.006Z,27.02
2018-12-19T20:57:01.975Z,26.93
2018-12-19T20:59:29.975Z,26.15
2018-12-19T21:01:58.000Z,27.05
2018-12-19T21:04:25.908Z,25.92
2018-12-19T21:06:53.825Z,25.40
2018-12-19T21:09:21.926Z,24.50
2018-12-19T21:11:49.938Z,25.17
2018-12-19T21:14:17.854Z,26.45
2018-12-19T21:16:51.257Z,25.40
2018-12-19T21:19:19.205Z,25.00
2018-12-19T21:21:47.118Z,24.40
2018-12-19T21:24:15.099Z,24.45
2018-12-19T21:26:43.047Z,24.35
2018-12-19T21:29:10.919Z,23.70
2018-12-19T21:31:38.868Z,23.20
2018-12-19T21:34:06.709Z,27.13
2018-12-19T21:36:34.598Z,24.77
2018-12-19T21:39:03.282Z,23.57
2018-12-19T21:41:32.292Z,23.57
2018-12-19T21:44:00.220Z,24.77
2018-12-19T21:46:28.247Z,25.30
2018-12-19T21:48:56.319Z,24.32
2018-12-19T21:51:24.266Z,23.50
2018-12-19T21:53:52.643Z,26.00
2018-12-19T21:56:20.675Z,22.77
2018-12-19T21:58:48.610Z,22.82
2018-12-19T22:01:16.778Z,24.85
2018-12-19T22:03:44.726Z,26.17
2018-12-19T22:06:12.722Z,26.05
2018-12-19T22:08:40.724Z,23.25
2018-12-19T22:11:08.765Z,26.33
2018-12-19T22:13:36.887Z,24.37
2018-12-19T22:16:04.929Z,24.52
2018-12-19T22:18:38.402Z,22.55
2018-12-19T22:21:06.588Z,24.70
2018-12-19T22:23:34.611Z,27.05
2018-12-19T22:26:02.639Z,25.10
2018-12-19T22:28:30.853Z,25.37
2018-12-19T22:30:58.874Z,26.10
2018-12-19T22:33:26.811Z,26.27
2018-12-19T22:35:54.798Z,25.97
2018-12-19T22:38:22.730Z,24.10
2018-12-19T22:40:50.695Z,24.52
2018-12-19T22:43:18.680Z,24.30
2018-12-19T22:45:46.612Z,24.92
2018-12-19T22:48:14.584Z,25.70
2018-12-19T22:50:42.613Z,25.20
2018-12-19T22:53:10.687Z,22.65
2018-12-19T22:55:38.690Z,25.72
2018-12-19T22:58:06.696Z,26.23
2018-12-19T23:00:40.393Z,24.75
2018-12-19T23:03:08.488Z,24.72
2018-12-19T23:05:43.107Z,24.35
2018-12-19T23:08:11.175Z,25.82
2018-12-19T23:10:39.125Z,26.62
2018-12-19T23:13:07.181Z,26.73
2018-12-19T23:15:35.539Z,26.80
2018-12-19T23:18:15.503Z,24.67
2018-12-19T23:20:49.611Z,22.55
2018-12-19T23:23:23.548Z,23.60
2018-12-19T23:25:57.906Z,24.10
2018-12-19T23:28:28.069Z,25.62
2018-12-19T23:30:56.735Z,23.92
2018-12-19T23:33:24.783Z,25.00
2018-12-19T23:35:52.820Z,27.07
2018-12-19T23:38:21.006Z,24.32
2018-12-19T23:40:49.225Z,24.50
2018-12-19T23:43:18.453Z,24.70
2018-12-19T23:45:46.730Z,25.48
2018-12-19T23:48:14.686Z,22.45
2018-12-19T23:50:42.685Z,23.95
2018-12-19T23:53:10.914Z,21.40
2018-12-19T23:55:38.873Z,24.70
2018-12-19T23:58:08.011Z,25.17
